Time;durP1;ratioP1;P1;durP2;ratioP2;P2;SDS_P1;SDS_P2;PMS_P1;PMS_P2;Temp;Humidity;BMP_temperature;BMP_pressure;BME280_temperature;BME280_humidity;BME280_pressure;Samples;Min_cycle;Max_cycle;Signal;HPM_P1;HPM_P2
2021/11/20 00:00:49;;;;;;;12.60;6.88;;;;;;;9.81;100.00;100882.00;5073175;28;20040;-74
2021/11/20 00:03:20;;;;;;;10.15;6.95;;;;;;;9.77;100.00;100888.44;5073393;28;20041;-74
2021/11/20 00:05:51;;;;;;;10.40;6.72;;;;;;;9.80;100.00;100893.59;5073481;28;20056;-74
2021/11/20 00:08:21;;;;;;;9.50;5.82;;;;;;;9.78;100.00;100886.63;5073726;28;20143;-74
2021/11/20 00:10:52;;;;;;;9.60;6.82;;;;;;;9.80;100.00;100890.06;5073426;28;20068;-74
2021/11/20 00:13:22;;;;;;;12.30;6.55;;;;;;;9.85;100.00;100891.59;5073379;28;20482;-75
2021/11/20 00:15:53;;;;;;;10.23;6.75;;;;;;;9.83;100.00;100881.94;5073177;28;20139;-76
2021/11/20 00:18:23;;;;;;;10.23;6.82;;;;;;;9.79;100.00;100885.69;5073449;28;20490;-76
2021/11/20 00:20:55;;;;;;;10.18;5.72;;;;;;;9.77;100.00;100883.09;5073248;28;20465;-75
2021/11/20 00:23:27;;;;;;;12.38;5.55;;;;;;;9.77;100.00;100883.09;5073576;28;20075;-74
2021/11/20 00:25:58;;;;;;;10.23;6.45;;;;;;;9.72;100.00;100882.44;5072842;28;20055;-74
2021/11/20 00:28:40;;;;;;;10.25;7.22;;;;;;;9.65;100.00;100892.53;5073614;28;20045;-75
2021/11/20 00:31:13;;;;;;;9.88;5.78;;;;;;;9.61;100.00;100893.59;5073530;28;20041;-74
2021/11/20 00:33:43;;;;;;;11.20;7.50;;;;;;;9.54;100.00;100892.13;5073203;28;20041;-78
2021/11/20 00:36:12;;;;;;;10.07;7.13;;;;;;;9.49;100.00;100877.31;5073592;28;20045;-77
2021/11/20 00:38:42;;;;;;;11.93;6.85;;;;;;;9.53;100.00;100895.75;5073130;28;20153;-78
2021/11/20 00:41:13;;;;;;;8.70;5.40;;;;;;;9.52;100.00;100883.38;5073349;28;20090;-78
2021/11/20 00:43:43;;;;;;;12.45;6.93;;;;;;;9.44;100.00;100866.88;5072822;28;20033;-77
2021/11/20 00:46:12;;;;;;;11.75;6.80;;;;;;;9.53;100.00;100873.56;5073523;28;20466;-78
2021/11/20 00:48:45;;;;;;;9.60;6.10;;;;;;;9.49;100.00;100867.53;5073012;28;20040;-77
2021/11/20 00:51:15;;;;;;;10.20;7.53;;;;;;;9.43;100.00;100862.47;5072874;28;20049;-78
2021/11/20 00:53:44;;;;;;;9.82;6.68;;;;;;;9.39;100.00;100851.13;5072883;28;20041;-78
2021/11/20 00:56:15;;;;;;;10.27;6.60;;;;;;;9.51;100.00;100859.47;5073176;28;20052;-78
2021/11/20 00:58:44;;;;;;;11.18;6.97;;;;;;;9.50;100.00;100858.59;5072617;28;20496;-78
2021/11/20 01:01:14;;;;;;;11.00;7.10;;;;;;;9.51;100.00;100870.97;5073012;28;20045;-78
2021/11/20 01:03:45;;;;;;;9.35;6.40;;;;;;;9.56;100.00;100854.81;5072925;28;20048;-78
2021/11/20 01:06:13;;;;;;;11.70;6.40;;;;;;;9.57;100.00;100865.38;5073026;28;20044;-75
2021/11/20 01:08:46;;;;;;;8.68;6.60;;;;;;;9.58;100.00;100853.78;5072791;28;20123;-75
2021/11/20 01:11:21;;;;;;;8.85;6.10;;;;;;;9.58;100.00;100844.94;5073209;28;20048;-75
2021/11/20 01:13:50;;;;;;;9.98;6.55;;;;;;;9.52;100.00;100840.75;5072426;28;20063;-74
2021/11/20 01:16:21;;;;;;;9.77;6.47;;;;;;;9.47;100.00;100837.44;5071689;28;20055;-74
2021/11/20 01:18:51;;;;;;;10.45;5.63;;;;;;;9.49;100.00;100837.38;5072613;28;20132;-74
2021/11/20 01:21:20;;;;;;;7.50;5.32;;;;;;;9.41;100.00;100843.06;5072499;28;20406;-74
2021/11/20 01:23:49;;;;;;;10.80;5.38;;;;;;;9.43;100.00;100834.03;5072572;28;20062;-74
2021/11/20 01:26:19;;;;;;;11.63;6.75;;;;;;;9.39;100.00;100844.94;5072457;28;20040;-75
2021/11/20 01:28:50;;;;;;;8.93;5.78;;;;;;;9.42;100.00;100831.47;5072769;28;20044;-75
2021/11/20 01:31:20;;;;;;;8.77;6.13;;;;;;;9.41;100.00;100824.41;5072697;28;20044;-76
2021/11/20 01:33:49;;;;;;;10.40;6.85;;;;;;;9.43;100.00;100849.16;5072458;28;20052;-76
2021/11/20 01:36:21;;;;;;;9.35;6.38;;;;;;;9.40;100.00;100836.88;5072456;28;20047;-76
2021/11/20 01:38:50;;;;;;;10.18;6.03;;;;;;;9.40;100.00;100825.34;5072387;28;20075;-76
2021/11/20 01:41:20;;;;;;;8.68;5.38;;;;;;;9.43;100.00;100841.19;5072332;28;20044;-76
2021/11/20 01:43:51;;;;;;;9.93;6.70;;;;;;;9.42;100.00;100813.69;5072325;28;20103;-76
2021/11/20 01:46:23;;;;;;;7.05;4.50;;;;;;;9.46;100.00;100835.72;5072729;28;20500;-76
2021/11/20 01:49:01;;;;;;;9.52;6.57;;;;;;;9.43;100.00;100826.06;5072536;28;20474;-76
2021/11/20 01:51:34;;;;;;;9.98;6.68;;;;;;;9.49;100.00;100830.25;5072695;28;20056;-77
2021/11/20 01:54:14;;;;;;;11.07;6.50;;;;;;;9.50;100.00;100825.78;5072353;28;20048;-78
2021/11/20 01:56:46;;;;;;;10.35;6.47;;;;;;;9.51;100.00;100833.69;5070618;28;20057;-76
2021/11/20 01:59:21;;;;;;;10.07;6.50;;;;;;;9.57;100.00;100801.47;5072668;28;20048;-76
2021/11/20 02:01:52;;;;;;;7.78;5.65;;;;;;;9.54;100.00;100808.72;5072281;28;20045;-75
2021/11/20 02:04:35;;;;;;;6.60;3.65;;;;;;;9.59;100.00;100807.56;5075964;28;20037;-74
2021/11/20 02:07:11;;;;;;;9.70;6.57;;;;;;;9.58;100.00;100802.31;5075437;28;20048;-75
2021/11/20 02:09:45;;;;;;;8.30;5.90;;;;;;;9.59;100.00;100814.72;5076139;28;20482;-75
2021/11/20 02:12:24;;;;;;;9.40;5.97;;;;;;;9.60;100.00;100817.28;5075835;28;20098;-75
2021/11/20 02:14:53;;;;;;;9.95;6.32;;;;;;;9.61;100.00;100815.50;5075639;28;20393;-75
2021/11/20 02:17:25;;;;;;;9.23;6.45;;;;;;;9.58;100.00;100805.00;5075799;28;20094;-78
2021/11/20 02:19:56;;;;;;;9.80;5.85;;;;;;;9.59;100.00;100802.25;5074277;28;20135;-78
2021/11/20 02:22:35;;;;;;;8.63;5.68;;;;;;;9.61;100.00;100802.16;5075470;28;20063;-78
2021/11/20 02:25:03;;;;;;;9.50;6.40;;;;;;;9.58;100.00;100820.97;5074993;28;20048;-77
2021/11/20 02:27:35;;;;;;;10.27;6.90;;;;;;;9.57;100.00;100812.13;5075995;28;20045;-79
2021/11/20 02:30:17;;;;;;;7.13;5.28;;;;;;;9.59;100.00;100807.56;5075530;28;20054;-80
2021/11/20 02:32:50;;;;;;;7.80;4.05;;;;;;;9.59;100.00;100812.91;5075551;28;20090;-79
2021/11/20 02:35:24;;;;;;;9.98;6.32;;;;;;;9.54;100.00;100809.56;5075475;28;20044;-77
2021/11/20 02:37:53;;;;;;;8.75;6.32;;;;;;;9.61;100.00;100805.69;5075317;28;20059;-78
2021/11/20 02:40:22;;;;;;;7.90;5.93;;;;;;;9.62;100.00;100810.09;5075491;28;20052;-77
2021/11/20 02:42:50;;;;;;;8.85;4.70;;;;;;;9.59;100.00;100790.72;5075090;28;20400;-77
2021/11/20 02:45:23;;;;;;;11.52;5.93;;;;;;;9.61;100.00;100797.72;5075186;28;20048;-73
2021/11/20 02:47:52;;;;;;;;;;;;;;;9.59;100.00;100799.59;5075250;28;20037;-74
2021/11/20 02:50:33;;;;;;;6.93;4.45;;;;;;;9.64;100.00;100802.88;5074146;28;19920;-73
2021/11/20 02:53:01;;;;;;;8.60;6.03;;;;;;;9.61;100.00;100795.03;5074955;28;20072;-75
2021/11/20 02:55:30;;;;;;;7.47;4.97;;;;;;;9.57;100.00;100795.28;5074948;28;20052;-75
2021/11/20 02:57:58;;;;;;;9.90;6.57;;;;;;;9.53;100.00;100794.53;5074864;28;20040;-75
2021/11/20 03:00:28;;;;;;;9.15;5.55;;;;;;;9.55;100.00;100798.00;5075000;28;20040;-75
2021/11/20 03:02:57;;;;;;;6.47;4.18;;;;;;;9.52;100.00;100787.50;5074845;28;20046;-75
2021/11/20 03:05:25;;;;;;;8.98;5.65;;;;;;;9.53;100.00;100794.53;5074759;28;20053;-75
2021/11/20 03:07:53;;;;;;;10.73;6.25;;;;;;;9.51;100.00;100788.44;5075433;28;20044;-75
2021/11/20 03:10:22;;;;;;;9.13;5.75;;;;;;;9.51;100.00;100776.91;5074979;28;20405;-75
2021/11/20 03:12:52;;;;;;;9.05;6.35;;;;;;;9.49;100.00;100792.97;5074856;28;20094;-75
2021/11/20 03:15:20;;;;;;;7.70;5.38;;;;;;;9.51;100.00;100788.44;5075212;28;20467;-75
2021/11/20 03:17:51;;;;;;;9.05;6.47;;;;;;;9.40;100.00;100777.44;5075255;28;20123;-75
2021/11/20 03:20:21;;;;;;;7.63;4.22;;;;;;;9.42;100.00;100768.41;5075009;28;20076;-74
2021/11/20 03:22:52;;;;;;;9.52;5.55;;;;;;;9.33;100.00;100770.66;5074229;28;20048;-74
2021/11/20 03:25:22;;;;;;;9.10;5.70;;;;;;;9.31;100.00;100784.03;5074703;28;20044;-74
2021/11/20 03:27:50;;;;;;;7.95;5.05;;;;;;;9.33;100.00;100770.66;5073879;28;20051;-75
2021/11/20 03:30:19;;;;;;;9.05;6.40;;;;;;;9.21;100.00;100781.88;5074377;28;20044;-73
2021/11/20 03:32:48;;;;;;;8.57;5.70;;;;;;;9.29;100.00;100777.06;5074345;28;20043;-74
2021/11/20 03:35:18;;;;;;;6.03;3.25;;;;;;;9.29;100.00;100775.25;5074471;28;20051;-74
2021/11/20 03:37:47;;;;;;;8.90;6.07;;;;;;;9.22;100.00;100773.81;5074318;28;20077;-74
2021/11/20 03:40:17;;;;;;;8.93;6.45;;;;;;;9.20;100.00;100781.00;5073916;28;20040;-74
2021/11/20 03:42:45;;;;;;;8.65;6.28;;;;;;;9.16;100.00;100768.75;5073920;28;20090;-74
2021/11/20 03:45:16;;;;;;;9.65;5.80;;;;;;;9.28;100.00;100778.00;5074300;28;20037;-74
2021/11/20 03:47:45;;;;;;;9.55;6.00;;;;;;;9.18;100.00;100757.13;5074291;28;20044;-74
2021/11/20 03:50:14;;;;;;;8.07;6.07;;;;;;;9.19;100.00;100773.97;5073991;28;20057;-74
2021/11/20 03:52:46;;;;;;;8.25;6.00;;;;;;;9.15;100.00;100737.75;5073926;28;20083;-74
2021/11/20 03:55:17;;;;;;;9.50;5.70;;;;;;;9.21;100.00;100760.59;5074164;28;20083;-74
2021/11/20 03:57:46;;;;;;;7.03;4.80;;;;;;;9.30;100.00;100761.00;5074010;28;20091;-74
2021/11/20 04:00:18;;;;;;;7.95;5.70;;;;;;;9.25;100.00;100763.00;5073654;28;20040;-74
2021/11/20 04:02:48;;;;;;;7.50;5.43;;;;;;;9.23;100.00;100764.03;5073785;28;20041;-74
2021/11/20 04:05:18;;;;;;;10.23;6.15;;;;;;;9.21;100.00;100779.22;5073542;28;20048;-70
2021/11/20 04:07:49;;;;;;;8.13;5.57;;;;;;;9.16;100.00;100764.31;5073952;28;20128;-70
2021/11/20 04:10:20;;;;;;;9.02;5.82;;;;;;;9.18;100.00;100778.44;5073850;28;20047;-70
2021/11/20 04:12:48;;;;;;;9.18;5.97;;;;;;;9.13;100.00;100775.09;5073844;28;20036;-70
2021/11/20 04:15:19;;;;;;;9.02;5.38;;;;;;;9.05;100.00;100750.63;5072672;28;20048;-70
2021/11/20 04:17:47;;;;;;;8.27;4.68;;;;;;;9.09;100.00;100751.38;5073539;28;20046;-71
2021/11/20 04:20:18;;;;;;;7.72;4.93;;;;;;;9.05;100.00;100776.38;5073512;28;20472;-74
2021/11/20 04:22:49;;;;;;;6.88;4.90;;;;;;;9.08;100.00;100761.16;5073293;28;20044;-75
2021/11/20 04:25:20;;;;;;;8.13;5.40;;;;;;;9.05;100.00;100761.28;5073472;28;20044;-75
2021/11/20 04:27:49;;;;;;;8.57;5.35;;;;;;;9.03;100.00;100763.16;5073633;28;20532;-75
2021/11/20 04:30:18;;;;;;;6.93;4.30;;;;;;;9.08;100.00;100766.47;5073381;28;20052;-75
2021/11/20 04:32:46;;;;;;;8.93;5.43;;;;;;;9.03;100.00;100763.16;5073393;28;20072;-75
2021/11/20 04:35:16;;;;;;;7.90;5.38;;;;;;;8.94;100.00;100778.66;5072954;28;20045;-75
2021/11/20 04:37:44;;;;;;;10.20;5.68;;;;;;;8.99;100.00;100772.22;5073349;28;20123;-74
2021/11/20 04:40:15;;;;;;;9.57;5.30;;;;;;;9.02;100.00;100769.41;5072760;28;20048;-74
2021/11/20 04:42:44;;;;;;;7.38;4.70;;;;;;;8.92;100.00;100777.88;5073285;28;20149;-76
2021/11/20 04:45:17;;;;;;;7.68;5.15;;;;;;;8.91;100.00;100763.72;5072752;28;20048;-76
2021/11/20 04:47:46;;;;;;;;;;;;;;;8.83;100.00;100765.84;5073768;28;20037;-76
2021/11/20 04:50:16;;;;;;;7.35;4.40;;;;;;;8.86;100.00;100761.25;5072880;28;19966;-74
2021/11/20 04:52:45;;;;;;;8.02;5.30;;;;;;;8.79;100.00;100758.94;5073058;28;20045;-74
2021/11/20 04:55:16;;;;;;;8.25;5.30;;;;;;;8.83;100.00;100747.22;5072552;28;20064;-74
2021/11/20 04:57:45;;;;;;;7.55;5.03;;;;;;;8.80;100.00;100761.53;5073460;28;20064;-74
2021/11/20 05:00:18;;;;;;;7.05;4.93;;;;;;;8.69;100.00;100749.66;5073182;28;20036;-76
2021/11/20 05:02:46;;;;;;;8.75;5.35;;;;;;;8.71;100.00;100761.94;5073180;28;20048;-75
2021/11/20 05:05:16;;;;;;;8.13;5.53;;;;;;;8.70;100.00;100764.69;5072645;28;20036;-75
2021/11/20 05:07:44;;;;;;;8.80;5.47;;;;;;;8.62;100.00;100769.47;5073092;28;20119;-75
2021/11/20 05:10:15;;;;;;;8.57;5.50;;;;;;;8.63;100.00;100757.91;5072543;28;20048;-75
2021/11/20 05:12:44;;;;;;;7.85;5.15;;;;;;;8.55;100.00;100769.72;5072968;28;20048;-74
2021/11/20 05:15:14;;;;;;;8.77;5.70;;;;;;;8.56;100.00;100767.94;5072605;28;20044;-75
2021/11/20 05:17:42;;;;;;;8.38;4.95;;;;;;;8.71;100.00;100771.72;5073079;28;20041;-75
2021/11/20 05:20:14;;;;;;;7.40;4.80;;;;;;;8.71;100.00;100766.41;5072249;28;20044;-77
2021/11/20 05:22:43;;;;;;;7.28;4.95;;;;;;;8.66;100.00;100763.06;5073088;28;20194;-74
2021/11/20 05:25:13;;;;;;;7.25;5.03;;;;;;;8.58;100.00;100771.38;5072632;28;20071;-74
2021/11/20 05:27:44;;;;;;;8.68;5.45;;;;;;;8.68;100.00;100766.53;5072868;28;20051;-75
2021/11/20 05:30:16;;;;;;;8.23;5.55;;;;;;;8.62;100.00;100757.03;5072377;28;20048;-74
2021/11/20 05:32:46;;;;;;;8.82;5.30;;;;;;;8.55;100.00;100753.78;5072850;28;20450;-74
2021/11/20 05:35:16;;;;;;;7.38;5.18;;;;;;;8.66;100.00;100753.28;5071044;28;20055;-75
2021/11/20 05:37:45;;;;;;;7.40;4.90;;;;;;;8.63;100.00;100745.47;5073460;28;20078;-75
2021/11/20 05:40:17;;;;;;;6.93;4.40;;;;;;;8.61;100.00;100742.00;5076250;28;20481;-75
2021/11/20 05:42:49;;;;;;;8.75;5.13;;;;;;;8.59;100.00;100738.56;5076601;28;20048;-74
2021/11/20 05:45:19;;;;;;;8.77;5.32;;;;;;;8.51;100.00;100754.00;5076123;28;20394;-74
2021/11/20 05:47:49;;;;;;;8.93;5.50;;;;;;;8.59;100.00;100751.88;5076478;28;20123;-74
2021/11/20 05:50:19;;;;;;;9.20;5.38;;;;;;;8.63;100.00;100755.22;5076069;28;20761;-76
2021/11/20 05:52:49;;;;;;;9.10;5.30;;;;;;;8.69;100.00;100753.19;5076380;28;20044;-75
2021/11/20 05:55:19;;;;;;;8.93;4.93;;;;;;;8.70;100.00;100756.69;5075662;28;20106;-76
2021/11/20 05:57:49;;;;;;;9.68;5.63;;;;;;;8.55;100.00;100761.75;5076285;28;20045;-75
2021/11/20 06:00:21;;;;;;;8.93;5.47;;;;;;;8.60;100.00;100754.44;5075930;28;20102;-74
2021/11/20 06:02:51;;;;;;;8.73;5.47;;;;;;;8.60;100.00;100756.25;5076517;28;20040;-74
2021/11/20 06:05:19;;;;;;;8.38;4.75;;;;;;;8.67;100.00;100748.84;5075697;28;20557;-74
2021/11/20 06:07:47;;;;;;;8.77;5.78;;;;;;;8.57;100.00;100757.22;5076168;28;20137;-74
2021/11/20 06:10:16;;;;;;;9.65;6.07;;;;;;;8.65;100.00;100740.06;5075581;28;20067;-75
2021/11/20 06:12:45;;;;;;;6.93;4.53;;;;;;;8.71;100.00;100734.50;5076009;28;20037;-70
2021/11/20 06:15:15;;;;;;;10.05;5.60;;;;;;;8.77;100.00;100734.19;5075559;28;20127;-73
2021/11/20 06:17:43;;;;;;;10.30;5.38;;;;;;;8.81;100.00;100763.25;5075896;28;20094;-72
2021/11/20 06:20:13;;;;;;;8.20;5.25;;;;;;;8.76;100.00;100730.66;5075465;28;20416;-71
2021/11/20 06:22:42;;;;;;;8.90;5.70;;;;;;;8.79;100.00;100733.22;5075799;28;20425;-74
2021/11/20 06:25:11;;;;;;;11.05;5.82;;;;;;;8.83;100.00;100718.84;5073595;28;20052;-74
2021/11/20 06:27:40;;;;;;;8.68;5.28;;;;;;;8.84;100.00;100730.34;5075511;28;20482;-74
2021/11/20 06:30:11;;;;;;;9.23;5.43;;;;;;;8.85;100.00;100726.75;5074836;28;20074;-73
2021/11/20 06:32:42;;;;;;;7.50;4.68;;;;;;;8.87;100.00;100725.72;5075603;28;20048;-74
2021/11/20 06:35:13;;;;;;;10.45;5.22;;;;;;;8.88;100.00;100737.25;5074917;28;20169;-75
2021/11/20 06:37:42;;;;;;;8.20;5.00;;;;;;;8.91;100.00;100718.50;5075323;28;20524;-73
2021/11/20 06:40:13;;;;;;;8.20;5.55;;;;;;;8.92;100.00;100736.19;5075563;28;20047;-74
2021/11/20 06:42:43;;;;;;;8.95;5.43;;;;;;;8.97;100.00;100751.91;5074956;28;20393;-77
2021/11/20 06:45:14;;;;;;;8.82;6.03;;;;;;;9.01;100.00;100759.69;5074674;28;20037;-78
2021/11/20 06:47:44;;;;;;;10.15;5.70;;;;;;;9.00;100.00;100767.75;5074581;28;20045;-73
2021/11/20 06:50:12;;;;;;;9.55;5.95;;;;;;;9.01;100.00;100774.81;5073388;28;20095;-74
2021/11/20 06:52:41;;;;;;;8.00;4.53;;;;;;;9.01;100.00;100773.00;5072892;28;20098;-73
2021/11/20 06:55:11;;;;;;;10.23;6.07;;;;;;;9.02;100.00;100777.38;5074180;28;20049;-75
2021/11/20 06:57:53;;;;;;;9.30;5.85;;;;;;;9.00;100.00;100770.41;5074352;28;20044;-74
2021/11/20 07:00:27;;;;;;;11.45;6.30;;;;;;;9.03;100.00;100763.16;5074463;28;20052;-75
2021/11/20 07:03:13;;;;;;;9.90;4.85;;;;;;;9.07;100.00;100769.19;5074920;28;20067;-75
2021/11/20 07:05:44;;;;;;;9.25;5.53;;;;;;;9.06;100.00;100768.31;5073482;28;20054;-73
2021/11/20 07:08:14;;;;;;;11.02;5.95;;;;;;;9.09;100.00;100768.19;5074562;28;20045;-74
2021/11/20 07:10:43;;;;;;;10.10;5.07;;;;;;;9.10;100.00;100758.41;5074801;28;20040;-74
2021/11/20 07:13:13;;;;;;;9.02;5.75;;;;;;;9.12;100.00;100765.38;5074360;28;20044;-74
2021/11/20 07:15:41;;;;;;;11.32;6.35;;;;;;;9.12;100.00;100776.03;5074297;28;20138;-71
2021/11/20 07:18:11;;;;;;;11.23;6.70;;;;;;;9.17;100.00;100784.69;5074272;28;20127;-72
2021/11/20 07:20:41;;;;;;;11.75;6.35;;;;;;;9.17;100.00;100771.38;5074345;28;20472;-74
2021/11/20 07:23:10;;;;;;;10.20;5.80;;;;;;;9.25;100.00;100789.63;5073790;28;20448;-72
2021/11/20 07:25:39;;;;;;;8.70;5.40;;;;;;;9.25;100.00;100789.63;5074422;28;20470;-74
2021/11/20 07:28:08;;;;;;;10.25;5.97;;;;;;;9.26;100.00;100787.84;5073914;28;20081;-69
2021/11/20 07:30:39;;;;;;;9.93;6.00;;;;;;;9.28;100.00;100791.31;5074036;28;20048;-69
2021/11/20 07:33:09;;;;;;;11.45;6.00;;;;;;;9.31;100.00;100778.72;5073667;28;20049;-72
2021/11/20 07:35:41;;;;;;;9.73;5.53;;;;;;;9.32;100.00;100763.59;5073960;28;20127;-70
2021/11/20 07:38:12;;;;;;;9.07;6.10;;;;;;;9.44;100.00;100792.31;5073423;28;20045;-73
2021/11/20 07:40:44;;;;;;;9.75;6.30;;;;;;;9.46;100.00;100783.34;5073787;28;20123;-72
2021/11/20 07:43:14;;;;;;;9.32;5.45;;;;;;;9.53;100.00;100785.69;5073634;28;20094;-72
2021/11/20 07:45:43;;;;;;;11.45;6.05;;;;;;;9.53;100.00;100805.19;5073755;28;20067;-73
2021/11/20 07:48:13;;;;;;;9.65;5.53;;;;;;;9.61;100.00;100802.16;5073806;28;20427;-72
2021/11/20 07:50:45;;;;;;;9.52;5.78;;;;;;;9.62;100.00;100788.78;5073967;28;20500;-74
2021/11/20 07:53:14;;;;;;;12.00;6.10;;;;;;;9.68;100.00;100812.47;5075099;28;20105;-73
2021/11/20 07:55:42;;;;;;;9.40;5.65;;;;;;;9.75;100.00;100816.56;5075247;28;20135;-70
2021/11/20 07:58:10;;;;;;;10.43;5.85;;;;;;;9.78;100.00;100810.22;5073413;28;20043;-75
2021/11/20 08:00:40;;;;;;;9.85;6.07;;;;;;;9.77;100.00;100824.50;5073215;28;20127;-75
2021/11/20 08:03:10;;;;;;;11.68;6.20;;;;;;;9.87;100.00;100808.94;5073044;28;20040;-74
2021/11/20 08:05:39;;;;;;;11.88;5.97;;;;;;;9.95;100.00;100814.75;5073431;28;20041;-71
2021/11/20 08:08:10;;;;;;;9.15;5.47;;;;;;;9.95;100.00;100812.94;5073229;28;20131;-76
2021/11/20 08:10:39;;;;;;;8.50;5.60;;;;;;;9.96;100.00;100813.81;5073579;28;20045;-73
2021/11/20 08:13:07;;;;;;;10.77;5.97;;;;;;;10.07;100.00;100816.81;5073371;28;20051;-72
2021/11/20 08:15:38;;;;;;;9.57;5.72;;;;;;;10.17;100.00;100807.41;5073125;28;20447;-73
2021/11/20 08:18:06;;;;;;;10.13;5.75;;;;;;;10.16;100.00;100816.34;5073077;28;20151;-72
2021/11/20 08:20:37;;;;;;;8.88;5.53;;;;;;;10.20;100.00;100807.25;5073167;28;20359;-72
2021/11/20 08:23:09;;;;;;;8.90;5.47;;;;;;;10.30;100.00;100805.88;5073339;28;20438;-72
2021/11/20 08:25:39;;;;;;;10.55;5.07;;;;;;;10.40;100.00;100805.44;5073012;28;20098;-73
2021/11/20 08:28:09;;;;;;;9.32;5.47;;;;;;;10.45;100.00;100798.06;5072988;28;20044;-74
2021/11/20 08:30:38;;;;;;;10.15;5.35;;;;;;;10.51;100.00;100797.75;5072739;28;20119;-76
2021/11/20 08:33:07;;;;;;;8.70;4.82;;;;;;;10.55;100.00;100802.00;5072524;28;20045;-72
2021/11/20 08:35:37;;;;;;;7.22;4.38;;;;;;;10.65;100.00;100807.72;5072640;28;20041;-72
2021/11/20 08:38:08;;;;;;;8.40;5.00;;;;;;;10.71;100.00;100802.03;5072781;28;20068;-72
2021/11/20 08:40:40;;;;;;;9.60;5.15;;;;;;;10.71;100.00;100807.38;5072527;28;20044;-71
2021/11/20 08:43:08;;;;;;;8.57;4.78;;;;;;;10.61;100.00;100812.31;5072723;28;20501;-71
2021/11/20 08:45:40;;;;;;;8.32;5.10;;;;;;;10.57;100.00;100808.09;5072439;28;20056;-70
2021/11/20 08:48:09;;;;;;;10.35;5.32;;;;;;;10.52;100.00;100820.81;5072965;28;20094;-70
2021/11/20 08:50:40;;;;;;;9.52;5.47;;;;;;;10.49;100.00;100823.63;5072458;28;20056;-70
2021/11/20 08:53:08;;;;;;;7.78;4.78;;;;;;;10.53;100.00;100822.56;5072763;28;20102;-71
2021/11/20 08:55:39;;;;;;;10.23;5.68;;;;;;;10.54;100.00;100832.28;5072379;28;20125;-71
2021/11/20 08:58:08;;;;;;;10.23;5.57;;;;;;;10.48;100.00;100835.25;5072874;28;20041;-72
2021/11/20 09:00:42;;;;;;;9.55;5.20;;;;;;;10.53;100.00;100846.56;5072338;28;20048;-71
2021/11/20 09:03:16;;;;;;;9.02;5.38;;;;;;;10.56;100.00;100841.06;5072386;28;20066;-70
2021/11/20 09:05:54;;;;;;;11.07;5.13;;;;;;;10.61;100.00;100839.00;5072455;28;20064;-69
2021/11/20 09:08:31;;;;;;;9.35;5.15;;;;;;;10.62;100.00;100845.22;5072528;28;20135;-69
2021/11/20 09:11:05;;;;;;;8.02;5.18;;;;;;;10.64;100.00;100846.88;5072917;28;20039;-69
2021/11/20 09:13:41;;;;;;;10.60;5.00;;;;;;;10.75;100.00;100846.31;5077031;28;20037;-69
2021/11/20 09:16:12;;;;;;;10.48;5.72;;;;;;;10.70;100.00;100854.53;5076794;28;20493;-69
2021/11/20 09:18:41;;;;;;;9.07;5.47;;;;;;;10.68;100.00;100848.44;5076737;28;20052;-69
2021/11/20 09:21:12;;;;;;;10.70;5.35;;;;;;;10.76;100.00;100837.38;5076410;28;20554;-69
2021/11/20 09:23:41;;;;;;;9.02;5.43;;;;;;;10.77;100.00;100845.28;5076661;28;20063;-69
2021/11/20 09:26:17;;;;;;;8.75;5.15;;;;;;;10.86;100.00;100830.59;5076506;28;20041;-69
2021/11/20 09:28:55;;;;;;;8.30;4.28;;;;;;;10.96;100.00;100839.00;5076355;28;20041;-69
2021/11/20 09:31:24;;;;;;;8.40;4.57;;;;;;;10.96;100.00;100839.00;5076034;28;20033;-69
2021/11/20 09:33:52;;;;;;;9.05;5.82;;;;;;;10.95;100.00;100837.28;5076228;28;20207;-69
2021/11/20 09:36:21;;;;;;;11.57;5.25;;;;;;;10.95;100.00;100839.94;5076080;28;20055;-70
2021/11/20 09:38:49;;;;;;;9.70;5.50;;;;;;;10.90;100.00;100826.81;5076161;28;20044;-69
2021/11/20 09:41:23;;;;;;;9.55;5.20;;;;;;;10.93;100.00;100828.50;5075979;28;20052;-70
2021/11/20 09:43:53;;;;;;;9.75;5.28;;;;;;;10.95;100.00;100821.25;5075735;28;20073;-69
2021/11/20 09:46:24;;;;;;;10.93;5.45;;;;;;;10.87;100.00;100822.53;5075725;28;20040;-69
2021/11/20 09:48:54;;;;;;;9.50;5.88;;;;;;;10.84;100.00;100822.69;5075928;28;20064;-69
2021/11/20 09:51:29;;;;;;;10.32;5.93;;;;;;;10.89;100.00;100812.63;5075473;28;20047;-70
2021/11/20 09:53:58;;;;;;;10.25;5.38;;;;;;;10.89;100.00;100817.09;5075898;28;20452;-69
2021/11/20 09:56:31;;;;;;;10.23;6.15;;;;;;;10.92;100.00;100806.28;5075089;28;20048;-70
2021/11/20 09:59:03;;;;;;;9.38;5.63;;;;;;;11.07;100.00;100812.59;5075286;28;20041;-69
2021/11/20 10:01:42;;;;;;;10.63;5.75;;;;;;;11.09;100.00;100811.56;5075128;28;20443;-69
2021/11/20 10:04:19;;;;;;;9.38;5.55;;;;;;;11.10;100.00;100816.00;5075685;28;20055;-70
2021/11/20 10:06:49;;;;;;;12.73;6.13;;;;;;;11.13;100.00;100809.59;5075745;28;20044;-69
2021/11/20 10:09:29;;;;;;;9.95;6.15;;;;;;;11.08;100.00;100814.31;5075885;28;20378;-68
2021/11/20 10:12:14;;;;;;;9.52;5.60;;;;;;;11.10;100.00;100826.66;5075828;28;20123;-68
2021/11/20 10:14:46;;;;;;;8.80;4.78;;;;;;;11.14;100.00;100814.00;5075236;28;20051;-67
2021/11/20 10:17:20;;;;;;;11.15;5.65;;;;;;;11.09;100.00;100813.38;5075941;28;20044;-68
2021/11/20 10:19:52;;;;;;;10.55;5.40;;;;;;;11.13;100.00;100825.63;5075903;28;20047;-69
2021/11/20 10:22:28;;;;;;;8.60;5.63;;;;;;;11.10;100.00;100815.13;5076381;28;20051;-72
2021/11/20 10:25:18;;;;;;;10.57;6.00;;;;;;;11.20;100.00;100816.34;5074930;28;20040;-68
2021/11/20 10:27:59;;;;;;;8.85;5.50;;;;;;;11.22;100.00;100818.94;5075104;28;20036;-67
2021/11/20 10:30:39;;;;;;;8.90;4.82;;;;;;;11.25;100.00;100798.25;5073392;28;20082;-70
2021/11/20 10:33:11;;;;;;;8.68;5.00;;;;;;;11.20;100.00;100795.00;5074626;28;20461;-71
2021/11/20 10:35:48;;;;;;;9.80;5.40;;;;;;;11.25;100.00;100808.94;5074786;28;20048;-71
2021/11/20 10:38:24;;;;;;;8.38;5.28;;;;;;;11.23;100.00;100810.84;5074995;28;20048;-71
2021/11/20 10:40:56;;;;;;;9.43;5.90;;;;;;;11.29;100.00;100810.53;5074429;28;20100;-71
2021/11/20 10:43:33;;;;;;;10.00;6.07;;;;;;;11.39;100.00;100821.56;5074766;28;20063;-70
2021/11/20 10:46:27;;;;;;;8.95;5.57;;;;;;;11.45;100.00;100816.72;5075232;28;20455;-71
2021/11/20 10:49:28;;;;;;;9.27;5.90;;;;;;;11.49;100.00;100801.41;5075099;28;20036;-72
2021/11/20 10:52:03;;;;;;;9.30;4.85;;;;;;;11.55;100.00;100794.84;5075226;28;20049;-70
2021/11/20 10:55:18;;;;;;;8.63;4.90;;;;;;;11.52;100.00;100795.03;5073888;28;20068;-70
2021/11/20 10:58:12;;;;;;;12.57;6.25;;;;;;;11.46;100.00;100790.88;5012541;28;20053;-71
2021/11/20 11:01:21;;;;;;;9.82;6.15;;;;;;;11.53;100.00;100792.28;5012880;28;20045;-72
2021/11/20 11:03:56;;;;;;;10.00;5.18;;;;;;;11.62;100.00;100788.22;5064897;28;20052;-71
2021/11/20 11:06:41;;;;;;;9.82;6.10;;;;;;;11.59;100.00;100791.09;5074448;28;20063;-73
2021/11/20 11:09:34;;;;;;;10.35;5.90;;;;;;;11.70;100.00;100777.97;5075017;28;20045;-72
2021/11/20 11:12:10;;;;;;;7.82;3.92;;;;;;;11.65;99.84;100780.88;5072627;28;20052;-71
2021/11/20 11:14:52;;;;;;;7.90;4.22;;;;;;;11.67;100.00;100783.47;5074303;28;20490;-71
2021/11/20 11:17:45;;;;;;;11.23;5.30;;;;;;;11.73;99.93;100785.81;5074799;28;20044;-72
2021/11/20 11:20:20;;;;;;;8.10;5.15;;;;;;;11.75;99.89;100786.56;5074643;28;20406;-72
2021/11/20 11:22:54;;;;;;;10.75;6.57;;;;;;;11.70;99.60;100781.50;5074222;28;20044;-72
2021/11/20 11:25:23;;;;;;;;;;;;;;;11.74;99.79;100774.16;5074829;28;20045;-72
2021/11/20 11:28:17;;;;;;;9.23;5.00;;;;;;;11.75;99.59;100770.53;5074078;28;19934;-72
2021/11/20 11:30:51;;;;;;;8.52;4.72;;;;;;;11.79;99.34;100782.81;5073972;28;20436;-71
2021/11/20 11:33:22;;;;;;;9.02;4.00;;;;;;;11.76;99.56;100783.81;5074322;28;20045;-72
2021/11/20 11:35:59;;;;;;;9.93;4.85;;;;;;;11.77;99.68;100782.00;5073101;28;20045;-72
2021/11/20 11:39:00;;;;;;;8.88;5.20;;;;;;;11.80;99.39;100773.88;5073732;28;20050;-73
2021/11/20 11:41:35;;;;;;;8.93;5.28;;;;;;;11.83;99.58;100762.13;5073508;28;20055;-73
2021/11/20 11:44:09;;;;;;;12.57;5.80;;;;;;;11.81;99.39;100762.22;5073766;28;20051;-72